sensor_id;sensor_type;location;lat;lon;timestamp;P1;durP1;ratioP1;P2;durP2;ratioP2
10216;SDS011;5152;59.674;16.838;2023-04-25T00:01:37;10.37;;;6.33;;
10216;SDS011;5152;59.674;16.838;2023-04-25T00:04:04;9.43;;;5.63;;
10216;SDS011;5152;59.674;16.838;2023-04-25T00:06:31;5.47;;;3.93;;
10216;SDS011;5152;59.674;16.838;2023-04-25T00:09:01;7.17;;;5.57;;
10216;SDS011;5152;59.674;16.838;2023-04-25T00:11:28;9.80;;;5.33;;
10216;SDS011;5152;59.674;16.838;2023-04-25T00:13:57;7.17;;;4.73;;
10216;SDS011;5152;59.674;16.838;2023-04-25T00:16:25;8.27;;;5.20;;
10216;SDS011;5152;59.674;16.838;2023-04-25T00:18:52;6.30;;;4.07;;
10216;SDS011;5152;59.674;16.838;2023-04-25T00:21:19;9.33;;;5.23;;
10216;SDS011;5152;59.674;16.838;2023-04-25T00:23:46;9.83;;;5.10;;
10216;SDS011;5152;59.674;16.838;2023-04-25T00:26:13;5.43;;;4.10;;
10216;SDS011;5152;59.674;16.838;2023-04-25T00:28:40;13.77;;;5.40;;
10216;SDS011;5152;59.674;16.838;2023-04-25T00:31:08;6.33;;;4.07;;
10216;SDS011;5152;59.674;16.838;2023-04-25T00:33:35;5.90;;;4.20;;
10216;SDS011;5152;59.674;16.838;2023-04-25T00:36:02;7.87;;;4.73;;
10216;SDS011;5152;59.674;16.838;2023-04-25T00:38:29;5.13;;;3.80;;
10216;SDS011;5152;59.674;16.838;2023-04-25T00:40:56;5.60;;;3.80;;
10216;SDS011;5152;59.674;16.838;2023-04-25T00:43:23;8.63;;;5.63;;
10216;SDS011;5152;59.674;16.838;2023-04-25T00:45:51;7.33;;;4.70;;
10216;SDS011;5152;59.674;16.838;2023-04-25T00:48:20;6.33;;;4.40;;
10216;SDS011;5152;59.674;16.838;2023-04-25T00:50:49;6.57;;;3.67;;
10216;SDS011;5152;59.674;16.838;2023-04-25T00:53:18;7.17;;;4.50;;
10216;SDS011;5152;59.674;16.838;2023-04-25T00:55:45;9.43;;;4.57;;
10216;SDS011;5152;59.674;16.838;2023-04-25T00:58:12;7.97;;;3.77;;
10216;SDS011;5152;59.674;16.838;2023-04-25T01:00:39;4.83;;;4.07;;
10216;SDS011;5152;59.674;16.838;2023-04-25T01:03:06;5.43;;;3.93;;
10216;SDS011;5152;59.674;16.838;2023-04-25T01:05:34;5.13;;;2.87;;
10216;SDS011;5152;59.674;16.838;2023-04-25T01:08:01;5.40;;;3.90;;
10216;SDS011;5152;59.674;16.838;2023-04-25T01:10:28;4.30;;;3.00;;
10216;SDS011;5152;59.674;16.838;2023-04-25T01:12:55;5.10;;;3.57;;
10216;SDS011;5152;59.674;16.838;2023-04-25T01:15:22;4.53;;;2.73;;
10216;SDS011;5152;59.674;16.838;2023-04-25T01:17:49;4.37;;;3.37;;
10216;SDS011;5152;59.674;16.838;2023-04-25T01:20:16;4.67;;;3.60;;
10216;SDS011;5152;59.674;16.838;2023-04-25T01:22:44;4.50;;;3.80;;
10216;SDS011;5152;59.674;16.838;2023-04-25T01:25:11;5.77;;;3.90;;
10216;SDS011;5152;59.674;16.838;2023-04-25T01:27:38;5.63;;;4.27;;
10216;SDS011;5152;59.674;16.838;2023-04-25T01:30:06;6.23;;;4.00;;
10216;SDS011;5152;59.674;16.838;2023-04-25T01:32:33;5.10;;;3.63;;
10216;SDS011;5152;59.674;16.838;2023-04-25T01:35:03;5.77;;;4.43;;
10216;SDS011;5152;59.674;16.838;2023-04-25T01:37:34;9.23;;;4.07;;
10216;SDS011;5152;59.674;16.838;2023-04-25T01:40:03;4.83;;;3.70;;
10216;SDS011;5152;59.674;16.838;2023-04-25T01:42:31;5.27;;;3.37;;
10216;SDS011;5152;59.674;16.838;2023-04-25T01:44:58;5.03;;;3.70;;
10216;SDS011;5152;59.674;16.838;2023-04-25T01:47:24;5.53;;;4.47;;
10216;SDS011;5152;59.674;16.838;2023-04-25T01:49:51;4.17;;;3.50;;
10216;SDS011;5152;59.674;16.838;2023-04-25T01:52:18;4.43;;;3.50;;
10216;SDS011;5152;59.674;16.838;2023-04-25T01:54:45;5.43;;;4.20;;
10216;SDS011;5152;59.674;16.838;2023-04-25T01:57:13;3.50;;;3.20;;
10216;SDS011;5152;59.674;16.838;2023-04-25T01:59:41;5.80;;;4.43;;
10216;SDS011;5152;59.674;16.838;2023-04-25T02:02:09;5.47;;;3.47;;
10216;SDS011;5152;59.674;16.838;2023-04-25T02:04:36;4.27;;;3.70;;
10216;SDS011;5152;59.674;16.838;2023-04-25T02:07:03;4.30;;;3.73;;
10216;SDS011;5152;59.674;16.838;2023-04-25T02:09:30;4.30;;;3.37;;
10216;SDS011;5152;59.674;16.838;2023-04-25T02:11:57;5.60;;;3.33;;
10216;SDS011;5152;59.674;16.838;2023-04-25T02:14:26;8.70;;;5.13;;
10216;SDS011;5152;59.674;16.838;2023-04-25T02:16:53;4.73;;;3.43;;
10216;SDS011;5152;59.674;16.838;2023-04-25T02:19:20;6.43;;;4.13;;
10216;SDS011;5152;59.674;16.838;2023-04-25T02:21:47;7.07;;;4.53;;
10216;SDS011;5152;59.674;16.838;2023-04-25T02:24:14;9.00;;;5.07;;
10216;SDS011;5152;59.674;16.838;2023-04-25T02:26:41;5.70;;;3.37;;
10216;SDS011;5152;59.674;16.838;2023-04-25T02:29:08;4.30;;;3.30;;
10216;SDS011;5152;59.674;16.838;2023-04-25T02:31:36;4.90;;;3.63;;
10216;SDS011;5152;59.674;16.838;2023-04-25T02:34:03;7.30;;;4.60;;
10216;SDS011;5152;59.674;16.838;2023-04-25T02:36:30;8.17;;;4.43;;
10216;SDS011;5152;59.674;16.838;2023-04-25T02:38:59;8.43;;;4.83;;
10216;SDS011;5152;59.674;16.838;2023-04-25T02:41:26;6.33;;;4.80;;
10216;SDS011;5152;59.674;16.838;2023-04-25T02:43:53;5.80;;;4.27;;
10216;SDS011;5152;59.674;16.838;2023-04-25T02:46:19;5.13;;;4.27;;
10216;SDS011;5152;59.674;16.838;2023-04-25T02:48:48;4.43;;;3.43;;
10216;SDS011;5152;59.674;16.838;2023-04-25T02:51:15;6.53;;;4.50;;
10216;SDS011;5152;59.674;16.838;2023-04-25T02:53:42;4.47;;;3.73;;
10216;SDS011;5152;59.674;16.838;2023-04-25T02:56:09;5.23;;;4.10;;
10216;SDS011;5152;59.674;16.838;2023-04-25T02:58:36;7.40;;;4.80;;
10216;SDS011;5152;59.674;16.838;2023-04-25T03:01:02;7.00;;;4.80;;
10216;SDS011;5152;59.674;16.838;2023-04-25T03:03:30;5.30;;;4.27;;
10216;SDS011;5152;59.674;16.838;2023-04-25T03:05:58;5.47;;;3.60;;
10216;SDS011;5152;59.674;16.838;2023-04-25T03:08:24;4.57;;;3.83;;
10216;SDS011;5152;59.674;16.838;2023-04-25T03:10:56;6.73;;;4.70;;
10216;SDS011;5152;59.674;16.838;2023-04-25T03:13:23;4.53;;;3.60;;
10216;SDS011;5152;59.674;16.838;2023-04-25T03:15:50;4.77;;;3.17;;
10216;SDS011;5152;59.674;16.838;2023-04-25T03:18:17;5.00;;;3.87;;
10216;SDS011;5152;59.674;16.838;2023-04-25T03:20:44;3.20;;;2.70;;
10216;SDS011;5152;59.674;16.838;2023-04-25T03:23:13;5.13;;;3.73;;
10216;SDS011;5152;59.674;16.838;2023-04-25T03:25:40;4.27;;;3.37;;
10216;SDS011;5152;59.674;16.838;2023-04-25T03:28:06;4.43;;;3.17;;
10216;SDS011;5152;59.674;16.838;2023-04-25T03:30:33;6.37;;;4.03;;
10216;SDS011;5152;59.674;16.838;2023-04-25T03:33:00;5.17;;;3.87;;
10216;SDS011;5152;59.674;16.838;2023-04-25T03:35:27;4.30;;;3.57;;
10216;SDS011;5152;59.674;16.838;2023-04-25T03:37:54;4.50;;;3.43;;
10216;SDS011;5152;59.674;16.838;2023-04-25T03:40:22;5.97;;;4.07;;
10216;SDS011;5152;59.674;16.838;2023-04-25T03:42:49;3.93;;;3.13;;
10216;SDS011;5152;59.674;16.838;2023-04-25T03:45:16;2.50;;;2.30;;
10216;SDS011;5152;59.674;16.838;2023-04-25T03:47:43;3.03;;;2.63;;
10216;SDS011;5152;59.674;16.838;2023-04-25T03:50:10;2.47;;;2.27;;
10216;SDS011;5152;59.674;16.838;2023-04-25T03:52:37;2.93;;;2.53;;
10216;SDS011;5152;59.674;16.838;2023-04-25T03:55:04;2.70;;;2.50;;
10216;SDS011;5152;59.674;16.838;2023-04-25T03:57:33;4.67;;;2.77;;
10216;SDS011;5152;59.674;16.838;2023-04-25T04:00:00;3.50;;;2.33;;
10216;SDS011;5152;59.674;16.838;2023-04-25T04:02:27;3.20;;;2.57;;
10216;SDS011;5152;59.674;16.838;2023-04-25T04:04:54;3.07;;;2.20;;
10216;SDS011;5152;59.674;16.838;2023-04-25T04:07:21;2.30;;;2.10;;
10216;SDS011;5152;59.674;16.838;2023-04-25T04:09:48;2.67;;;2.33;;
10216;SDS011;5152;59.674;16.838;2023-04-25T04:12:15;4.03;;;3.03;;
10216;SDS011;5152;59.674;16.838;2023-04-25T04:14:43;3.33;;;2.53;;
10216;SDS011;5152;59.674;16.838;2023-04-25T04:17:10;3.83;;;3.03;;
10216;SDS011;5152;59.674;16.838;2023-04-25T04:19:37;3.20;;;2.90;;
10216;SDS011;5152;59.674;16.838;2023-04-25T04:22:04;4.17;;;2.90;;
10216;SDS011;5152;59.674;16.838;2023-04-25T04:24:31;4.03;;;3.00;;
10216;SDS011;5152;59.674;16.838;2023-04-25T04:26:58;8.67;;;3.70;;
10216;SDS011;5152;59.674;16.838;2023-04-25T04:29:25;5.37;;;3.17;;
10216;SDS011;5152;59.674;16.838;2023-04-25T04:31:53;4.83;;;3.23;;
10216;SDS011;5152;59.674;16.838;2023-04-25T04:34:20;3.33;;;2.33;;
10216;SDS011;5152;59.674;16.838;2023-04-25T04:36:49;2.67;;;2.27;;
10216;SDS011;5152;59.674;16.838;2023-04-25T04:39:16;1.90;;;1.70;;
10216;SDS011;5152;59.674;16.838;2023-04-25T04:41:43;2.67;;;2.17;;
10216;SDS011;5152;59.674;16.838;2023-04-25T04:44:10;5.20;;;2.63;;
10216;SDS011;5152;59.674;16.838;2023-04-25T04:46:37;3.87;;;2.57;;
10216;SDS011;5152;59.674;16.838;2023-04-25T04:49:08;2.27;;;1.90;;
10216;SDS011;5152;59.674;16.838;2023-04-25T04:51:35;2.00;;;1.80;;
10216;SDS011;5152;59.674;16.838;2023-04-25T04:54:03;4.67;;;4.27;;
10216;SDS011;5152;59.674;16.838;2023-04-25T04:56:30;2.87;;;2.57;;
10216;SDS011;5152;59.674;16.838;2023-04-25T04:58:57;2.10;;;1.90;;
10216;SDS011;5152;59.674;16.838;2023-04-25T05:01:25;1.63;;;1.30;;
10216;SDS011;5152;59.674;16.838;2023-04-25T05:03:52;1.27;;;1.10;;
10216;SDS011;5152;59.674;16.838;2023-04-25T05:06:20;2.73;;;1.53;;
10216;SDS011;5152;59.674;16.838;2023-04-25T05:08:47;1.60;;;1.50;;
10216;SDS011;5152;59.674;16.838;2023-04-25T05:11:14;2.17;;;1.83;;
10216;SDS011;5152;59.674;16.838;2023-04-25T05:13:41;2.57;;;1.70;;
10216;SDS011;5152;59.674;16.838;2023-04-25T05:16:08;1.70;;;1.60;;
10216;SDS011;5152;59.674;16.838;2023-04-25T05:18:34;2.83;;;1.57;;
10216;SDS011;5152;59.674;16.838;2023-04-25T05:21:01;1.40;;;1.30;;
10216;SDS011;5152;59.674;16.838;2023-04-25T05:23:30;1.67;;;1.57;;
10216;SDS011;5152;59.674;16.838;2023-04-25T05:25:57;2.27;;;1.80;;
10216;SDS011;5152;59.674;16.838;2023-04-25T05:28:24;2.23;;;1.70;;
10216;SDS011;5152;59.674;16.838;2023-04-25T05:30:51;1.60;;;1.50;;
10216;SDS011;5152;59.674;16.838;2023-04-25T05:33:18;2.00;;;1.80;;
10216;SDS011;5152;59.674;16.838;2023-04-25T05:35:45;2.20;;;1.80;;
10216;SDS011;5152;59.674;16.838;2023-04-25T05:38:12;2.37;;;1.77;;
10216;SDS011;5152;59.674;16.838;2023-04-25T05:40:41;2.20;;;2.00;;
10216;SDS011;5152;59.674;16.838;2023-04-25T05:43:08;1.60;;;1.50;;
10216;SDS011;5152;59.674;16.838;2023-04-25T05:45:34;2.00;;;1.70;;
10216;SDS011;5152;59.674;16.838;2023-04-25T05:48:01;2.00;;;1.50;;
10216;SDS011;5152;59.674;16.838;2023-04-25T05:50:28;1.47;;;1.33;;
10216;SDS011;5152;59.674;16.838;2023-04-25T05:52:55;1.80;;;1.50;;
10216;SDS011;5152;59.674;16.838;2023-04-25T05:55:22;3.20;;;1.73;;
10216;SDS011;5152;59.674;16.838;2023-04-25T05:57:51;3.27;;;2.07;;
10216;SDS011;5152;59.674;16.838;2023-04-25T06:00:18;1.87;;;1.70;;
10216;SDS011;5152;59.674;16.838;2023-04-25T06:02:47;2.90;;;1.90;;
10216;SDS011;5152;59.674;16.838;2023-04-25T06:05:14;3.23;;;2.30;;
10216;SDS011;5152;59.674;16.838;2023-04-25T06:07:41;1.83;;;1.70;;
10216;SDS011;5152;59.674;16.838;2023-04-25T06:10:08;2.40;;;1.97;;
10216;SDS011;5152;59.674;16.838;2023-04-25T06:12:35;3.70;;;1.90;;
10216;SDS011;5152;59.674;16.838;2023-04-25T06:15:05;1.77;;;1.50;;
10216;SDS011;5152;59.674;16.838;2023-04-25T06:17:33;3.43;;;1.90;;
10216;SDS011;5152;59.674;16.838;2023-04-25T06:20:00;1.70;;;1.50;;
10216;SDS011;5152;59.674;16.838;2023-04-25T06:22:27;2.83;;;2.10;;
10216;SDS011;5152;59.674;16.838;2023-04-25T06:24:54;3.77;;;2.20;;
10216;SDS011;5152;59.674;16.838;2023-04-25T06:27:23;2.47;;;1.83;;
10216;SDS011;5152;59.674;16.838;2023-04-25T06:29:50;2.57;;;1.63;;
10216;SDS011;5152;59.674;16.838;2023-04-25T06:32:19;5.00;;;2.03;;
10216;SDS011;5152;59.674;16.838;2023-04-25T06:34:46;1.97;;;1.77;;
10216;SDS011;5152;59.674;16.838;2023-04-25T06:37:13;3.10;;;1.97;;
10216;SDS011;5152;59.674;16.838;2023-04-25T06:39:40;2.33;;;1.80;;
10216;SDS011;5152;59.674;16.838;2023-04-25T06:42:07;2.83;;;1.80;;
10216;SDS011;5152;59.674;16.838;2023-04-25T06:44:34;5.20;;;2.10;;
10216;SDS011;5152;59.674;16.838;2023-04-25T06:47:01;1.93;;;1.70;;
10216;SDS011;5152;59.674;16.838;2023-04-25T06:49:29;1.70;;;1.50;;
10216;SDS011;5152;59.674;16.838;2023-04-25T06:51:56;2.63;;;1.40;;
10216;SDS011;5152;59.674;16.838;2023-04-25T06:54:22;1.60;;;1.50;;
10216;SDS011;5152;59.674;16.838;2023-04-25T06:56:50;1.43;;;1.33;;
10216;SDS011;5152;59.674;16.838;2023-04-25T06:59:16;1.80;;;1.50;;
10216;SDS011;5152;59.674;16.838;2023-04-25T07:01:43;2.07;;;1.30;;
10216;SDS011;5152;59.674;16.838;2023-04-25T07:04:10;2.30;;;2.10;;
10216;SDS011;5152;59.674;16.838;2023-04-25T07:06:38;2.87;;;1.83;;
10216;SDS011;5152;59.674;16.838;2023-04-25T07:09:07;2.10;;;1.80;;
10216;SDS011;5152;59.674;16.838;2023-04-25T07:11:35;2.83;;;2.03;;
10216;SDS011;5152;59.674;16.838;2023-04-25T07:14:02;2.27;;;1.87;;
10216;SDS011;5152;59.674;16.838;2023-04-25T07:16:29;2.17;;;1.80;;
10216;SDS011;5152;59.674;16.838;2023-04-25T07:18:56;1.70;;;1.60;;
10216;SDS011;5152;59.674;16.838;2023-04-25T07:21:24;1.77;;;1.63;;
10216;SDS011;5152;59.674;16.838;2023-04-25T07:23:53;3.27;;;1.90;;
10216;SDS011;5152;59.674;16.838;2023-04-25T07:26:19;1.83;;;1.63;;
10216;SDS011;5152;59.674;16.838;2023-04-25T07:28:46;2.13;;;1.60;;
10216;SDS011;5152;59.674;16.838;2023-04-25T07:31:16;2.43;;;1.73;;
10216;SDS011;5152;59.674;16.838;2023-04-25T07:33:43;1.97;;;1.63;;
10216;SDS011;5152;59.674;16.838;2023-04-25T07:36:10;4.87;;;1.40;;
10216;SDS011;5152;59.674;16.838;2023-04-25T07:38:37;1.70;;;1.43;;
10216;SDS011;5152;59.674;16.838;2023-04-25T07:41:06;2.17;;;1.47;;
10216;SDS011;5152;59.674;16.838;2023-04-25T07:43:33;1.83;;;1.40;;
10216;SDS011;5152;59.674;16.838;2023-04-25T07:46:00;3.47;;;1.70;;
10216;SDS011;5152;59.674;16.838;2023-04-25T07:48:27;2.03;;;1.50;;
10216;SDS011;5152;59.674;16.838;2023-04-25T07:50:54;1.83;;;1.20;;
10216;SDS011;5152;59.674;16.838;2023-04-25T07:53:21;3.23;;;1.70;;
10216;SDS011;5152;59.674;16.838;2023-04-25T07:55:48;2.70;;;1.63;;
10216;SDS011;5152;59.674;16.838;2023-04-25T07:58:16;1.97;;;1.50;;
10216;SDS011;5152;59.674;16.838;2023-04-25T08:00:46;1.63;;;1.43;;
10216;SDS011;5152;59.674;16.838;2023-04-25T08:03:13;1.90;;;1.63;;
10216;SDS011;5152;59.674;16.838;2023-04-25T08:05:40;2.20;;;1.50;;
10216;SDS011;5152;59.674;16.838;2023-04-25T08:08:06;2.17;;;1.40;;
10216;SDS011;5152;59.674;16.838;2023-04-25T08:10:33;2.13;;;1.53;;
10216;SDS011;5152;59.674;16.838;2023-04-25T08:13:00;1.73;;;1.40;;
10216;SDS011;5152;59.674;16.838;2023-04-25T08:15:29;1.90;;;1.17;;
10216;SDS011;5152;59.674;16.838;2023-04-25T08:17:55;1.43;;;1.30;;
10216;SDS011;5152;59.674;16.838;2023-04-25T08:20:22;2.43;;;2.00;;
10216;SDS011;5152;59.674;16.838;2023-04-25T08:22:50;2.23;;;1.40;;
10216;SDS011;5152;59.674;16.838;2023-04-25T08:25:17;3.07;;;1.93;;
10216;SDS011;5152;59.674;16.838;2023-04-25T08:27:44;5.33;;;2.43;;
10216;SDS011;5152;59.674;16.838;2023-04-25T08:30:11;6.10;;;2.30;;
10216;SDS011;5152;59.674;16.838;2023-04-25T08:32:39;1.83;;;1.43;;
10216;SDS011;5152;59.674;16.838;2023-04-25T08:35:06;2.50;;;2.17;;
10216;SDS011;5152;59.674;16.838;2023-04-25T08:37:34;1.57;;;1.33;;
10216;SDS011;5152;59.674;16.838;2023-04-25T08:40:01;2.63;;;1.47;;
10216;SDS011;5152;59.674;16.838;2023-04-25T08:42:32;2.20;;;1.60;;
10216;SDS011;5152;59.674;16.838;2023-04-25T08:45:01;1.43;;;1.20;;
10216;SDS011;5152;59.674;16.838;2023-04-25T08:47:29;1.67;;;1.30;;
10216;SDS011;5152;59.674;16.838;2023-04-25T08:49:58;2.57;;;1.70;;
10216;SDS011;5152;59.674;16.838;2023-04-25T08:52:27;1.43;;;1.27;;
10216;SDS011;5152;59.674;16.838;2023-04-25T08:54:56;2.27;;;2.03;;
10216;SDS011;5152;59.674;16.838;2023-04-25T08:57:23;2.20;;;1.40;;
10216;SDS011;5152;59.674;16.838;2023-04-25T08:59:51;1.53;;;1.10;;
10216;SDS011;5152;59.674;16.838;2023-04-25T09:02:18;1.57;;;1.47;;
10216;SDS011;5152;59.674;16.838;2023-04-25T09:04:45;1.47;;;1.27;;
10216;SDS011;5152;59.674;16.838;2023-04-25T09:07:14;1.23;;;1.13;;
10216;SDS011;5152;59.674;16.838;2023-04-25T09:09:43;1.43;;;1.20;;
10216;SDS011;5152;59.674;16.838;2023-04-25T09:12:10;1.33;;;1.23;;
10216;SDS011;5152;59.674;16.838;2023-04-25T09:14:37;1.47;;;1.27;;
10216;SDS011;5152;59.674;16.838;2023-04-25T09:17:04;1.87;;;1.53;;
10216;SDS011;5152;59.674;16.838;2023-04-25T09:19:33;2.17;;;1.63;;
10216;SDS011;5152;59.674;16.838;2023-04-25T09:22:02;1.20;;;1.10;;
10216;SDS011;5152;59.674;16.838;2023-04-25T09:24:40;1.63;;;1.50;;
10216;SDS011;5152;59.674;16.838;2023-04-25T09:27:09;2.37;;;1.40;;
10216;SDS011;5152;59.674;16.838;2023-04-25T09:29:37;1.20;;;1.10;;
10216;SDS011;5152;59.674;16.838;2023-04-25T09:32:12;4.33;;;1.60;;
10216;SDS011;5152;59.674;16.838;2023-04-25T09:34:41;3.00;;;1.37;;
10216;SDS011;5152;59.674;16.838;2023-04-25T09:37:10;1.50;;;1.30;;
10216;SDS011;5152;59.674;16.838;2023-04-25T09:39:37;0.87;;;0.87;;
10216;SDS011;5152;59.674;16.838;2023-04-25T09:42:05;2.37;;;1.60;;
10216;SDS011;5152;59.674;16.838;2023-04-25T09:44:32;1.93;;;1.40;;
10216;SDS011;5152;59.674;16.838;2023-04-25T09:46:59;2.37;;;1.80;;
10216;SDS011;5152;59.674;16.838;2023-04-25T09:49:27;1.43;;;1.30;;
10216;SDS011;5152;59.674;16.838;2023-04-25T09:51:54;1.40;;;1.30;;
10216;SDS011;5152;59.674;16.838;2023-04-25T09:54:22;1.70;;;1.60;;
10216;SDS011;5152;59.674;16.838;2023-04-25T09:56:51;1.17;;;1.07;;
10216;SDS011;5152;59.674;16.838;2023-04-25T09:59:20;2.47;;;1.83;;
10216;SDS011;5152;59.674;16.838;2023-04-25T10:01:48;1.73;;;1.40;;
10216;SDS011;5152;59.674;16.838;2023-04-25T10:04:16;1.93;;;1.40;;
10216;SDS011;5152;59.674;16.838;2023-04-25T10:06:46;1.70;;;1.60;;
10216;SDS011;5152;59.674;16.838;2023-04-25T10:09:15;2.00;;;1.43;;
10216;SDS011;5152;59.674;16.838;2023-04-25T10:11:43;1.77;;;1.17;;
10216;SDS011;5152;59.674;16.838;2023-04-25T10:14:12;2.13;;;1.80;;
10216;SDS011;5152;59.674;16.838;2023-04-25T10:16:40;1.40;;;1.10;;
10216;SDS011;5152;59.674;16.838;2023-04-25T10:19:08;1.23;;;1.13;;
10216;SDS011;5152;59.674;16.838;2023-04-25T10:21:36;1.27;;;1.17;;
10216;SDS011;5152;59.674;16.838;2023-04-25T10:24:03;1.10;;;0.90;;
10216;SDS011;5152;59.674;16.838;2023-04-25T10:26:31;0.60;;;0.60;;
10216;SDS011;5152;59.674;16.838;2023-04-25T10:28:59;1.40;;;0.90;;
10216;SDS011;5152;59.674;16.838;2023-04-25T10:31:26;1.90;;;1.70;;
10216;SDS011;5152;59.674;16.838;2023-04-25T10:33:55;1.43;;;1.10;;
10216;SDS011;5152;59.674;16.838;2023-04-25T10:36:22;0.90;;;0.80;;
10216;SDS011;5152;59.674;16.838;2023-04-25T10:38:50;0.70;;;0.70;;
10216;SDS011;5152;59.674;16.838;2023-04-25T10:41:17;1.00;;;0.90;;
10216;SDS011;5152;59.674;16.838;2023-04-25T10:43:45;1.57;;;0.90;;
10216;SDS011;5152;59.674;16.838;2023-04-25T10:46:16;0.63;;;0.60;;
10216;SDS011;5152;59.674;16.838;2023-04-25T10:48:45;0.70;;;0.70;;
10216;SDS011;5152;59.674;16.838;2023-04-25T10:51:17;2.37;;;1.80;;
10216;SDS011;5152;59.674;16.838;2023-04-25T10:53:45;1.97;;;1.70;;
10216;SDS011;5152;59.674;16.838;2023-04-25T10:56:16;3.30;;;2.03;;
10216;SDS011;5152;59.674;16.838;2023-04-25T10:58:44;1.97;;;1.77;;
10216;SDS011;5152;59.674;16.838;2023-04-25T11:01:12;2.07;;;1.20;;
10216;SDS011;5152;59.674;16.838;2023-04-25T11:03:42;3.37;;;2.00;;
10216;SDS011;5152;59.674;16.838;2023-04-25T11:06:15;1.70;;;1.60;;
10216;SDS011;5152;59.674;16.838;2023-04-25T11:08:48;3.00;;;1.80;;
10216;SDS011;5152;59.674;16.838;2023-04-25T11:11:16;2.27;;;1.53;;
10216;SDS011;5152;59.674;16.838;2023-04-25T11:13:43;4.83;;;2.30;;
10216;SDS011;5152;59.674;16.838;2023-04-25T11:16:10;1.40;;;0.97;;
10216;SDS011;5152;59.674;16.838;2023-04-25T11:18:37;4.10;;;1.50;;
10216;SDS011;5152;59.674;16.838;2023-04-25T11:21:06;2.73;;;1.90;;
10216;SDS011;5152;59.674;16.838;2023-04-25T11:23:35;3.80;;;1.23;;
10216;SDS011;5152;59.674;16.838;2023-04-25T11:26:02;1.87;;;1.03;;
10216;SDS011;5152;59.674;16.838;2023-04-25T11:28:29;2.13;;;1.20;;
10216;SDS011;5152;59.674;16.838;2023-04-25T11:30:56;0.80;;;0.80;;
10216;SDS011;5152;59.674;16.838;2023-04-25T11:33:23;1.03;;;0.70;;
10216;SDS011;5152;59.674;16.838;2023-04-25T11:35:51;1.33;;;0.80;;
10216;SDS011;5152;59.674;16.838;2023-04-25T11:38:21;0.70;;;0.70;;
10216;SDS011;5152;59.674;16.838;2023-04-25T11:40:53;0.70;;;0.70;;
10216;SDS011;5152;59.674;16.838;2023-04-25T11:43:20;5.30;;;2.87;;
10216;SDS011;5152;59.674;16.838;2023-04-25T11:45:47;3.27;;;2.60;;
10216;SDS011;5152;59.674;16.838;2023-04-25T11:48:15;2.63;;;2.20;;
10216;SDS011;5152;59.674;16.838;2023-04-25T11:50:42;3.27;;;2.40;;
10216;SDS011;5152;59.674;16.838;2023-04-25T11:53:09;1.70;;;1.60;;
10216;SDS011;5152;59.674;16.838;2023-04-25T11:55:36;3.80;;;2.20;;
10216;SDS011;5152;59.674;16.838;2023-04-25T11:58:06;2.07;;;1.60;;
10216;SDS011;5152;59.674;16.838;2023-04-25T12:00:33;0.80;;;0.80;;
10216;SDS011;5152;59.674;16.838;2023-04-25T12:03:00;1.40;;;1.13;;
10216;SDS011;5152;59.674;16.838;2023-04-25T12:05:29;2.30;;;1.67;;
10216;SDS011;5152;59.674;16.838;2023-04-25T12:07:58;3.13;;;2.50;;
10216;SDS011;5152;59.674;16.838;2023-04-25T12:10:36;1.00;;;0.90;;
10216;SDS011;5152;59.674;16.838;2023-04-25T12:13:18;1.23;;;1.13;;
10216;SDS011;5152;59.674;16.838;2023-04-25T12:15:46;3.67;;;2.17;;
10216;SDS011;5152;59.674;16.838;2023-04-25T12:18:13;1.47;;;1.30;;
10216;SDS011;5152;59.674;16.838;2023-04-25T12:20:40;3.07;;;2.40;;
10216;SDS011;5152;59.674;16.838;2023-04-25T12:23:08;0.83;;;0.83;;
10216;SDS011;5152;59.674;16.838;2023-04-25T12:25:36;0.73;;;0.73;;
10216;SDS011;5152;59.674;16.838;2023-04-25T12:28:11;1.10;;;0.70;;
10216;SDS011;5152;59.674;16.838;2023-04-25T12:30:59;1.67;;;1.27;;
10216;SDS011;5152;59.674;16.838;2023-04-25T12:33:27;2.03;;;1.83;;
10216;SDS011;5152;59.674;16.838;2023-04-25T12:35:55;1.40;;;1.10;;
10216;SDS011;5152;59.674;16.838;2023-04-25T12:38:23;2.87;;;2.50;;
10216;SDS011;5152;59.674;16.838;2023-04-25T12:40:50;2.27;;;1.90;;
10216;SDS011;5152;59.674;16.838;2023-04-25T12:43:18;1.10;;;0.70;;
10216;SDS011;5152;59.674;16.838;2023-04-25T12:45:45;1.07;;;0.97;;
10216;SDS011;5152;59.674;16.838;2023-04-25T12:48:15;2.70;;;2.03;;
10216;SDS011;5152;59.674;16.838;2023-04-25T12:50:42;0.80;;;0.80;;
10216;SDS011;5152;59.674;16.838;2023-04-25T12:53:09;1.90;;;1.63;;
10216;SDS011;5152;59.674;16.838;2023-04-25T12:55:36;0.67;;;0.67;;
10216;SDS011;5152;59.674;16.838;2023-04-25T12:58:03;3.20;;;2.90;;
10216;SDS011;5152;59.674;16.838;2023-04-25T13:00:30;1.10;;;0.90;;
10216;SDS011;5152;59.674;16.838;2023-04-25T13:02:57;0.80;;;0.70;;
10216;SDS011;5152;59.674;16.838;2023-04-25T13:05:26;1.73;;;1.40;;
10216;SDS011;5152;59.674;16.838;2023-04-25T13:07:53;1.17;;;0.87;;
10216;SDS011;5152;59.674;16.838;2023-04-25T13:10:19;1.30;;;1.10;;
10216;SDS011;5152;59.674;16.838;2023-04-25T13:12:46;1.60;;;0.63;;
10216;SDS011;5152;59.674;16.838;2023-04-25T13:15:13;0.80;;;0.80;;
10216;SDS011;5152;59.674;16.838;2023-04-25T13:17:41;0.93;;;0.80;;
10216;SDS011;5152;59.674;16.838;2023-04-25T13:20:09;1.33;;;1.23;;
10216;SDS011;5152;59.674;16.838;2023-04-25T13:22:38;2.83;;;1.80;;
10216;SDS011;5152;59.674;16.838;2023-04-25T13:25:06;2.07;;;1.97;;
10216;SDS011;5152;59.674;16.838;2023-04-25T13:27:33;1.37;;;1.00;;
10216;SDS011;5152;59.674;16.838;2023-04-25T13:30:01;4.53;;;1.97;;
10216;SDS011;5152;59.674;16.838;2023-04-25T13:32:32;1.43;;;0.73;;
10216;SDS011;5152;59.674;16.838;2023-04-25T13:35:01;1.80;;;1.20;;
10216;SDS011;5152;59.674;16.838;2023-04-25T13:37:28;2.30;;;2.10;;
10216;SDS011;5152;59.674;16.838;2023-04-25T13:39:58;1.40;;;1.30;;
10216;SDS011;5152;59.674;16.838;2023-04-25T13:42:26;2.07;;;1.60;;
10216;SDS011;5152;59.674;16.838;2023-04-25T13:44:53;3.23;;;2.17;;
10216;SDS011;5152;59.674;16.838;2023-04-25T13:47:20;4.57;;;2.00;;
10216;SDS011;5152;59.674;16.838;2023-04-25T13:49:47;3.30;;;1.77;;
10216;SDS011;5152;59.674;16.838;2023-04-25T13:52:14;1.17;;;0.90;;
10216;SDS011;5152;59.674;16.838;2023-04-25T13:54:40;1.73;;;1.43;;
10216;SDS011;5152;59.674;16.838;2023-04-25T13:57:09;1.97;;;1.77;;
10216;SDS011;5152;59.674;16.838;2023-04-25T13:59:37;1.33;;;1.23;;
10216;SDS011;5152;59.674;16.838;2023-04-25T14:02:04;4.47;;;2.30;;
10216;SDS011;5152;59.674;16.838;2023-04-25T14:04:31;1.53;;;1.43;;
10216;SDS011;5152;59.674;16.838;2023-04-25T14:06:58;3.30;;;2.43;;
10216;SDS011;5152;59.674;16.838;2023-04-25T14:09:24;3.43;;;2.50;;
10216;SDS011;5152;59.674;16.838;2023-04-25T14:11:52;0.83;;;0.77;;
10216;SDS011;5152;59.674;16.838;2023-04-25T14:14:20;2.77;;;1.30;;
10216;SDS011;5152;59.674;16.838;2023-04-25T14:16:48;2.13;;;1.47;;
10216;SDS011;5152;59.674;16.838;2023-04-25T14:19:16;7.93;;;4.00;;
10216;SDS011;5152;59.674;16.838;2023-04-25T14:21:43;4.00;;;2.87;;
10216;SDS011;5152;59.674;16.838;2023-04-25T14:24:11;3.47;;;1.33;;
10216;SDS011;5152;59.674;16.838;2023-04-25T14:26:39;2.43;;;2.20;;
10216;SDS011;5152;59.674;16.838;2023-04-25T14:29:07;2.77;;;2.17;;
10216;SDS011;5152;59.674;16.838;2023-04-25T14:31:38;1.60;;;1.23;;
10216;SDS011;5152;59.674;16.838;2023-04-25T14:34:06;3.53;;;3.10;;
10216;SDS011;5152;59.674;16.838;2023-04-25T14:36:33;2.77;;;2.30;;
10216;SDS011;5152;59.674;16.838;2023-04-25T14:39:00;4.17;;;3.10;;
10216;SDS011;5152;59.674;16.838;2023-04-25T14:41:27;3.17;;;2.37;;
10216;SDS011;5152;59.674;16.838;2023-04-25T14:43:54;3.93;;;2.90;;
10216;SDS011;5152;59.674;16.838;2023-04-25T14:46:22;3.37;;;2.60;;
10216;SDS011;5152;59.674;16.838;2023-04-25T14:48:50;4.43;;;3.37;;
10216;SDS011;5152;59.674;16.838;2023-04-25T14:51:17;7.20;;;3.30;;